createdAt,value
2023-03-22T00:01:17.737Z,1.88
2023-03-22T00:03:44.679Z,1.88
2023-03-22T00:06:11.677Z,1.55
2023-03-22T00:08:38.610Z,1.70
2023-03-22T00:11:05.521Z,1.90
2023-03-22T00:13:33.893Z,1.55
2023-03-22T00:16:02.298Z,1.65
2023-03-22T00:18:29.223Z,1.50
2023-03-22T00:20:56.137Z,1.50
2023-03-22T00:23:23.092Z,1.60
2023-03-22T00:25:50.008Z,1.60
2023-03-22T00:28:16.933Z,1.50
2023-03-22T00:30:43.825Z,1.40
2023-03-22T00:33:12.378Z,1.75
2023-03-22T00:35:39.346Z,1.20
2023-03-22T00:38:06.369Z,1.67
2023-03-22T00:40:33.337Z,1.25
2023-03-22T00:43:00.258Z,1.40
2023-03-22T00:45:27.232Z,1.40
2023-03-22T00:47:54.183Z,1.30
2023-03-22T00:50:21.164Z,1.70
2023-03-22T00:52:48.103Z,1.40
2023-03-22T00:55:15.013Z,1.48
2023-03-22T00:57:41.972Z,1.50
2023-03-22T01:00:08.920Z,1.55
2023-03-22T01:02:35.886Z,1.35
2023-03-22T01:05:02.853Z,1.42
2023-03-22T01:07:29.773Z,1.40
2023-03-22T01:09:56.693Z,1.50
2023-03-22T01:12:23.619Z,1.70
2023-03-22T01:14:50.620Z,1.55
2023-03-22T01:17:17.536Z,1.50
2023-03-22T01:19:44.503Z,1.38
2023-03-22T01:22:11.468Z,1.77
2023-03-22T01:24:38.437Z,1.80
2023-03-22T01:27:05.378Z,1.73
2023-03-22T01:29:32.311Z,1.95
2023-03-22T01:31:59.274Z,1.88
2023-03-22T01:34:26.240Z,1.35
2023-03-22T01:36:53.198Z,1.50
2023-03-22T01:39:20.183Z,2.30
2023-03-22T01:41:47.242Z,1.85
2023-03-22T01:44:14.205Z,2.00
2023-03-22T01:46:41.213Z,1.90
2023-03-22T01:49:08.266Z,1.48
2023-03-22T01:51:35.247Z,2.08
2023-03-22T01:54:02.360Z,1.92
2023-03-22T01:56:29.319Z,2.10
2023-03-22T01:58:56.276Z,2.40
2023-03-22T02:01:23.199Z,2.40
2023-03-22T02:03:50.136Z,2.17
2023-03-22T02:06:17.109Z,1.77
2023-03-22T02:08:44.037Z,1.90
2023-03-22T02:11:11.011Z,2.33
2023-03-22T02:13:37.953Z,2.60
2023-03-22T02:16:04.927Z,2.42
2023-03-22T02:18:33.039Z,2.08
2023-03-22T02:21:02.304Z,1.50
2023-03-22T02:23:29.524Z,1.63
2023-03-22T02:25:56.438Z,1.50
2023-03-22T02:28:23.386Z,1.58
2023-03-22T02:30:50.405Z,1.23
2023-03-22T02:33:17.414Z,1.27
2023-03-22T02:35:44.415Z,1.15
2023-03-22T02:38:11.358Z,1.27
2023-03-22T02:40:38.729Z,1.15
2023-03-22T02:43:05.796Z,1.40
2023-03-22T02:45:32.756Z,1.75
2023-03-22T02:47:59.672Z,1.33
2023-03-22T02:50:26.649Z,1.67
2023-03-22T02:52:53.583Z,1.10
2023-03-22T02:55:20.500Z,1.58
2023-03-22T02:57:48.885Z,1.75
2023-03-22T03:00:15.819Z,1.70
2023-03-22T03:02:42.765Z,1.73
2023-03-22T03:05:09.710Z,1.63
2023-03-22T03:07:36.641Z,1.40
2023-03-22T03:10:03.579Z,1.20
2023-03-22T03:12:30.488Z,1.60
2023-03-22T03:14:57.430Z,1.65
2023-03-22T03:17:24.351Z,1.70
2023-03-22T03:19:51.301Z,1.70
2023-03-22T03:22:18.239Z,1.42
2023-03-22T03:24:45.208Z,1.67
2023-03-22T03:27:12.120Z,1.60
2023-03-22T03:29:39.075Z,1.42
2023-03-22T03:32:06.027Z,1.80
2023-03-22T03:34:32.969Z,1.67
2023-03-22T03:36:59.923Z,1.77
2023-03-22T03:39:26.840Z,1.83
2023-03-22T03:41:53.914Z,1.30
2023-03-22T03:44:20.844Z,1.30
2023-03-22T03:46:47.786Z,1.40
2023-03-22T03:49:14.759Z,1.95
2023-03-22T03:51:41.877Z,1.08
2023-03-22T03:54:08.818Z,1.58
2023-03-22T03:56:35.716Z,1.55
2023-03-22T03:59:02.625Z,1.60
2023-03-22T04:01:29.547Z,1.45
2023-03-22T04:03:56.505Z,1.10
2023-03-22T04:06:23.433Z,1.02
2023-03-22T04:08:51.472Z,0.90
2023-03-22T04:11:18.373Z,1.10
2023-03-22T04:13:45.349Z,1.05
2023-03-22T04:16:12.286Z,1.40
2023-03-22T04:18:39.262Z,1.20
2023-03-22T04:21:06.154Z,0.88
2023-03-22T04:23:33.149Z,1.30
2023-03-22T04:26:01.425Z,1.20
2023-03-22T04:28:28.367Z,1.30
2023-03-22T04:30:55.307Z,1.33
2023-03-22T04:33:22.216Z,1.73
2023-03-22T04:35:49.173Z,1.38
2023-03-22T04:38:16.104Z,2.00
2023-03-22T04:40:43.070Z,2.15
2023-03-22T04:43:11.597Z,2.03
2023-03-22T04:45:40.120Z,1.60
2023-03-22T04:48:07.141Z,1.42
2023-03-22T04:50:34.086Z,0.98
2023-03-22T04:53:01.054Z,1.50
2023-03-22T04:55:27.949Z,1.10
2023-03-22T04:57:54.963Z,1.63
2023-03-22T05:00:21.918Z,1.35
2023-03-22T05:02:48.899Z,1.52
2023-03-22T05:05:15.848Z,2.22
2023-03-22T05:07:42.806Z,1.65
2023-03-22T05:10:09.736Z,1.42
2023-03-22T05:12:36.709Z,1.40
2023-03-22T05:15:03.658Z,1.20
2023-03-22T05:17:30.647Z,1.33
2023-03-22T05:19:57.631Z,1.17
2023-03-22T05:22:24.572Z,1.42
2023-03-22T05:24:51.559Z,1.27
2023-03-22T05:27:18.513Z,1.08
2023-03-22T05:29:45.457Z,1.08
2023-03-22T05:32:15.215Z,0.95
2023-03-22T05:34:42.167Z,1.10
2023-03-22T05:37:09.106Z,1.20
2023-03-22T05:39:37.120Z,1.00
2023-03-22T05:42:04.099Z,1.02
2023-03-22T05:44:31.067Z,0.98
2023-03-22T05:46:59.044Z,1.20
2023-03-22T05:49:26.079Z,1.05
2023-03-22T05:51:53.026Z,1.08
2023-03-22T05:54:19.955Z,1.15
2023-03-22T05:56:46.922Z,1.23
2023-03-22T05:59:15.204Z,1.10
2023-03-22T06:01:42.188Z,1.73
2023-03-22T06:04:09.209Z,1.38
2023-03-22T06:06:36.177Z,1.10
2023-03-22T06:09:15.944Z,1.13
2023-03-22T06:11:43.968Z,1.20
2023-03-22T06:14:10.953Z,1.33
2023-03-22T06:16:38.057Z,1.42
2023-03-22T06:19:05.018Z,1.30
2023-03-22T06:21:31.967Z,1.33
2023-03-22T06:23:58.918Z,1.50
2023-03-22T06:26:25.854Z,1.42
2023-03-22T06:28:52.809Z,1.70
2023-03-22T06:31:19.811Z,1.85
2023-03-22T06:33:46.817Z,2.15
2023-03-22T06:36:13.802Z,2.83
2023-03-22T06:38:40.722Z,2.35
2023-03-22T06:41:08.574Z,2.83
2023-03-22T06:43:35.508Z,2.85
2023-03-22T06:46:02.468Z,2.78
2023-03-22T06:48:29.513Z,3.42
2023-03-22T06:50:56.460Z,3.53
2023-03-22T06:53:23.387Z,2.38
2023-03-22T06:55:50.313Z,2.42
2023-03-22T06:58:17.253Z,2.17
2023-03-22T07:00:44.152Z,1.77
2023-03-22T07:03:11.078Z,2.35
2023-03-22T07:05:38.019Z,2.25
2023-03-22T07:08:04.951Z,3.15
2023-03-22T07:10:31.952Z,3.63
2023-03-22T07:12:58.949Z,4.18
2023-03-22T07:15:25.880Z,4.40
2023-03-22T07:17:53.184Z,4.80
2023-03-22T07:20:20.124Z,5.13
2023-03-22T07:22:47.075Z,5.78
2023-03-22T07:25:14.037Z,4.80
2023-03-22T07:27:40.992Z,6.15
2023-03-22T07:30:09.702Z,5.25
2023-03-22T07:32:36.913Z,5.90
2023-03-22T07:35:03.852Z,4.78
2023-03-22T07:37:30.766Z,5.97
2023-03-22T07:39:57.656Z,5.95
2023-03-22T07:42:24.578Z,5.53
2023-03-22T07:44:51.549Z,5.97
2023-03-22T07:47:27.175Z,6.00
2023-03-22T07:49:57.920Z,5.10
2023-03-22T07:52:24.876Z,6.00
2023-03-22T07:54:51.799Z,5.30
2023-03-22T07:57:18.746Z,4.22
2023-03-22T07:59:45.684Z,5.55
2023-03-22T08:02:12.650Z,5.40
2023-03-22T08:04:39.973Z,5.97
2023-03-22T08:07:06.884Z,5.90
2023-03-22T08:09:33.856Z,5.63
2023-03-22T08:12:00.765Z,5.28
2023-03-22T08:14:36.326Z,5.05
2023-03-22T08:17:03.823Z,3.95
2023-03-22T08:19:30.747Z,4.90
2023-03-22T08:21:57.724Z,4.13
2023-03-22T08:24:24.729Z,4.38
2023-03-22T08:26:51.710Z,3.17
2023-03-22T08:29:18.624Z,4.15
2023-03-22T08:31:45.620Z,3.53
2023-03-22T08:34:12.539Z,3.80
2023-03-22T08:36:39.464Z,3.47
2023-03-22T08:39:06.416Z,3.85
2023-03-22T08:41:33.365Z,3.10
2023-03-22T08:44:00.352Z,3.80
2023-03-22T08:46:27.337Z,3.33
2023-03-22T08:48:54.288Z,2.90
2023-03-22T08:51:21.213Z,2.25
2023-03-22T08:53:48.152Z,2.78
2023-03-22T08:56:15.091Z,2.85
2023-03-22T08:58:42.019Z,2.47
2023-03-22T09:01:09.054Z,2.60
2023-03-22T09:03:36.046Z,2.63
2023-03-22T09:06:03.001Z,3.00
2023-03-22T09:08:29.963Z,2.47
2023-03-22T09:10:56.952Z,1.95
2023-03-22T09:13:23.989Z,1.50
2023-03-22T09:15:50.946Z,1.40
2023-03-22T09:18:17.913Z,1.38
2023-03-22T09:20:44.823Z,1.20
2023-03-22T09:23:11.748Z,1.30
2023-03-22T09:25:38.834Z,1.40
2023-03-22T09:28:06.007Z,1.00
2023-03-22T09:30:32.988Z,1.13
2023-03-22T09:32:59.933Z,1.30
2023-03-22T09:35:26.912Z,1.02
2023-03-22T09:37:53.950Z,1.13
2023-03-22T09:40:20.851Z,1.75
2023-03-22T09:42:47.772Z,1.20
2023-03-22T09:45:14.793Z,1.15
2023-03-22T09:47:45.211Z,0.90
2023-03-22T09:50:12.442Z,1.20
2023-03-22T09:52:39.411Z,1.13
2023-03-22T09:55:06.336Z,1.23
2023-03-22T09:57:33.268Z,1.20
2023-03-22T10:00:00.217Z,1.33
2023-03-22T10:02:27.179Z,1.02
2023-03-22T10:04:54.138Z,0.80
2023-03-22T10:07:21.107Z,1.30
2023-03-22T10:09:48.006Z,0.93
2023-03-22T10:12:14.890Z,1.38
2023-03-22T10:14:41.924Z,1.20
2023-03-22T10:17:08.856Z,0.90
2023-03-22T10:19:40.064Z,1.35
2023-03-22T10:24:18.996Z,2.00
2023-03-22T10:25:11.384Z,1.63
2023-03-22T10:27:43.464Z,1.83
2023-03-22T10:30:38.983Z,1.60
2023-03-22T10:33:09.165Z,1.85
2023-03-22T10:35:36.163Z,1.80
2023-03-22T10:38:03.099Z,1.83
2023-03-22T10:40:30.072Z,1.60
2023-03-22T10:42:57.009Z,1.50
2023-03-22T10:45:23.958Z,1.60
2023-03-22T10:47:51.059Z,1.35
2023-03-22T10:50:18.061Z,1.20
2023-03-22T10:52:45.201Z,1.10
2023-03-22T10:55:12.134Z,1.30
2023-03-22T10:57:39.027Z,1.30
2023-03-22T11:00:05.964Z,1.20
2023-03-22T11:02:33.075Z,1.55
2023-03-22T11:05:00.406Z,1.55
2023-03-22T11:07:27.352Z,1.30
2023-03-22T11:09:54.285Z,1.63
2023-03-22T11:12:21.196Z,1.45
2023-03-22T11:14:48.114Z,1.58
2023-03-22T11:17:18.097Z,1.40
2023-03-22T11:19:45.055Z,1.77
2023-03-22T11:22:12.008Z,1.25
2023-03-22T11:24:38.955Z,1.20
2023-03-22T11:27:05.842Z,1.50
2023-03-22T11:29:32.808Z,1.40
2023-03-22T11:31:59.819Z,1.55
2023-03-22T11:34:26.837Z,1.15
2023-03-22T11:36:53.802Z,1.50
2023-03-22T11:39:20.719Z,1.75
2023-03-22T11:41:47.641Z,1.92
2023-03-22T11:44:14.709Z,1.88
2023-03-22T11:46:41.701Z,1.15
2023-03-22T12:07:09.715Z,1.42
2023-03-22T12:09:36.659Z,1.52
2023-03-22T12:12:03.569Z,1.73
2023-03-22T12:14:30.610Z,1.52
2023-03-22T12:16:57.540Z,1.30
2023-03-22T12:19:24.496Z,1.90
2023-03-22T12:21:51.451Z,1.40
2023-03-22T12:24:18.460Z,1.50
2023-03-22T12:26:45.421Z,1.52
2023-03-22T12:29:12.332Z,0.82
2023-03-22T12:31:39.407Z,1.42
2023-03-22T12:34:06.586Z,1.08
2023-03-22T12:36:33.550Z,0.93
2023-03-22T12:45:12.849Z,1.83
2023-03-22T12:47:39.828Z,1.52
2023-03-22T12:50:07.147Z,1.30
2023-03-22T12:52:44.660Z,1.38
2023-03-22T12:55:12.870Z,1.13
2023-03-22T12:57:39.803Z,1.30
2023-03-22T13:05:33.348Z,0.90
2023-03-22T13:08:36.954Z,0.80
2023-03-22T13:11:03.926Z,0.80
2023-03-22T13:13:30.867Z,0.70
2023-03-22T13:15:57.785Z,0.80
2023-03-22T13:18:33.029Z,0.80
2023-03-22T13:21:00.325Z,0.52
2023-03-22T13:23:27.317Z,0.57
2023-03-22T13:25:54.300Z,0.50
2023-03-22T13:28:21.234Z,0.65
2023-03-22T13:30:48.202Z,0.68
2023-03-22T13:33:15.155Z,0.68
2023-03-22T13:35:42.270Z,0.57
2023-03-22T13:38:09.444Z,0.70
2023-03-22T13:40:36.339Z,0.50
2023-03-22T13:43:03.284Z,0.55
2023-03-22T13:45:30.219Z,0.60
2023-03-22T13:47:57.358Z,0.73
2023-03-22T13:50:24.364Z,0.70
2023-03-22T13:52:51.348Z,0.50
2023-03-22T13:55:18.900Z,0.70
2023-03-22T13:57:45.948Z,1.02
2023-03-22T14:00:15.062Z,0.82
2023-03-22T14:02:42.857Z,0.60
2023-03-22T14:05:09.961Z,0.82
2023-03-22T14:07:36.889Z,0.55
2023-03-22T14:10:03.948Z,0.75
2023-03-22T14:12:30.867Z,0.70
2023-03-22T14:14:57.808Z,0.50
2023-03-22T14:17:24.807Z,0.65
2023-03-22T14:19:51.768Z,0.50
2023-03-22T14:53:55.294Z,0.70
2023-03-22T14:56:22.307Z,0.57
2023-03-22T14:58:49.341Z,0.70
2023-03-22T15:01:16.422Z,0.68
2023-03-22T15:03:44.825Z,0.68
2023-03-22T15:06:11.844Z,0.70
2023-03-22T15:08:38.946Z,0.60
2023-03-22T15:11:06.005Z,0.40
2023-03-22T15:13:33.024Z,0.80
2023-03-22T15:16:00.170Z,0.50
2023-03-22T15:18:27.542Z,0.50
2023-03-22T15:20:54.593Z,0.80
2023-03-22T15:23:21.639Z,0.60
2023-03-22T15:25:48.663Z,0.50
2023-03-22T15:28:15.796Z,0.73
2023-03-22T15:30:42.850Z,1.00
2023-03-22T15:33:09.873Z,0.60
2023-03-22T15:35:37.828Z,0.82
2023-03-22T15:38:06.175Z,0.73
2023-03-22T15:40:33.194Z,0.90
2023-03-22T15:43:00.250Z,0.80
2023-03-22T15:45:27.296Z,0.88
2023-03-22T15:47:54.432Z,0.80
2023-03-22T15:50:21.476Z,0.60
2023-03-22T15:52:49.693Z,0.85
2023-03-22T15:55:17.230Z,0.70
2023-03-22T15:57:44.919Z,0.70
2023-03-22T16:00:11.950Z,0.80
2023-03-22T16:02:38.962Z,0.60
2023-03-22T16:05:05.980Z,0.73
2023-03-22T16:07:33.012Z,0.55
2023-03-22T16:10:00.071Z,0.50
2023-03-22T16:12:27.174Z,0.60
2023-03-22T16:14:54.236Z,0.60
2023-03-22T16:17:21.273Z,0.55
2023-03-22T16:19:48.308Z,0.55
2023-03-22T16:22:15.584Z,0.70
2023-03-22T16:24:42.627Z,0.60
2023-03-22T16:27:09.664Z,0.40
2023-03-22T16:29:36.735Z,0.50
2023-03-22T16:32:03.762Z,0.50
2023-03-22T16:34:30.822Z,0.65
2023-03-22T16:37:01.510Z,0.43
2023-03-22T16:39:28.537Z,0.40
2023-03-22T16:41:55.552Z,0.52
2023-03-22T16:44:22.598Z,0.40
2023-03-22T16:46:49.672Z,0.68
2023-03-22T16:49:16.712Z,0.90
2023-03-22T16:51:43.767Z,0.75
2023-03-22T16:54:10.975Z,1.05
2023-03-22T16:56:38.028Z,1.20
2023-03-22T16:59:05.108Z,0.90
2023-03-22T17:01:32.179Z,0.85
2023-03-22T17:04:01.835Z,0.80
2023-03-22T17:06:28.894Z,0.80
2023-03-22T17:08:55.955Z,0.57
2023-03-22T17:11:23.129Z,0.63
2023-03-22T17:13:50.221Z,0.57
2023-03-22T17:16:17.359Z,0.60
2023-03-22T17:18:44.483Z,0.80
2023-03-22T17:21:14.481Z,0.63
2023-03-22T17:23:41.786Z,0.68
2023-03-22T17:26:08.869Z,0.80
2023-03-22T17:28:35.865Z,1.10
2023-03-22T17:31:02.957Z,0.65
2023-03-22T17:33:31.433Z,1.30
2023-03-22T17:35:58.587Z,0.90
2023-03-22T17:38:33.241Z,1.25
2023-03-22T17:41:06.406Z,1.20
2023-03-22T17:43:33.679Z,1.15
2023-03-22T17:46:33.177Z,1.48
2023-03-22T17:48:47.809Z,1.27
2023-03-22T17:51:14.813Z,1.45
2023-03-22T17:54:35.462Z,1.45
2023-03-22T17:57:03.609Z,3.67
2023-03-22T17:59:15.981Z,4.53
2023-03-22T18:01:43.254Z,22.65
2023-03-22T18:04:10.466Z,15.93
2023-03-22T18:06:37.447Z,8.32
2023-03-22T18:09:04.590Z,4.40
2023-03-22T18:11:31.718Z,3.60
2023-03-22T18:14:13.781Z,3.78
2023-03-22T18:16:53.200Z,5.00
2023-03-22T18:19:21.148Z,7.97
2023-03-22T18:21:48.405Z,9.32
2023-03-22T18:24:15.466Z,4.68
2023-03-22T18:26:57.385Z,3.67
2023-03-22T18:29:29.476Z,1.55
2023-03-22T18:31:56.541Z,1.55
2023-03-22T18:34:23.856Z,1.55
2023-03-22T18:36:50.938Z,1.65
2023-03-22T18:40:04.543Z,1.70
2023-03-22T18:42:16.693Z,1.40
2023-03-22T18:44:46.670Z,1.33
2023-03-22T18:47:13.697Z,1.42
2023-03-22T18:49:40.778Z,1.25
2023-03-22T18:54:39.047Z,1.10
2023-03-22T18:57:07.179Z,1.23
2023-03-22T18:59:34.795Z,0.90
2023-03-22T19:02:09.998Z,0.75
2023-03-22T19:04:39.125Z,1.00
2023-03-22T19:07:06.279Z,0.73
2023-03-22T19:09:33.369Z,1.15
2023-03-22T19:12:00.471Z,1.17
2023-03-22T19:15:14.893Z,1.50
2023-03-22T19:17:14.670Z,1.10
2023-03-22T19:19:41.775Z,2.08
2023-03-22T19:22:08.842Z,1.40
2023-03-22T19:24:35.978Z,1.08
2023-03-22T19:27:16.856Z,1.30
2023-03-22T19:29:46.207Z,1.05
2023-03-22T19:32:13.324Z,1.02
2023-03-22T19:34:40.461Z,1.13
2023-03-22T19:37:07.604Z,1.15
2023-03-22T19:39:34.851Z,1.00
2023-03-22T19:42:06.544Z,1.00
2023-03-22T19:44:33.881Z,1.10
2023-03-22T19:47:00.985Z,1.27
2023-03-22T19:49:28.027Z,0.95
2023-03-22T19:51:55.096Z,1.10
2023-03-22T19:56:51.203Z,1.20
2023-03-22T19:59:18.653Z,1.65
2023-03-22T20:01:46.605Z,1.95
2023-03-22T20:04:13.632Z,1.80
2023-03-22T20:06:41.198Z,1.90
2023-03-22T20:09:08.209Z,1.55
2023-03-22T20:11:43.444Z,1.35
2023-03-22T20:14:10.765Z,1.80
2023-03-22T20:16:37.825Z,1.95
2023-03-22T20:19:04.853Z,1.98
2023-03-22T20:21:31.892Z,1.25
2023-03-22T20:23:59.010Z,1.48
2023-03-22T20:26:26.033Z,1.48
2023-03-22T20:28:53.107Z,1.27
2023-03-22T20:31:20.160Z,1.05
2023-03-22T20:33:47.218Z,0.80
2023-03-22T20:36:14.388Z,1.10
2023-03-22T20:38:41.416Z,1.02
2023-03-22T20:41:08.447Z,1.15
2023-03-22T20:43:35.445Z,0.95
2023-03-22T20:46:02.480Z,1.10
2023-03-22T20:48:29.505Z,1.10
2023-03-22T20:50:56.542Z,1.40
2023-03-22T20:53:23.542Z,1.00
2023-03-22T20:55:50.606Z,1.30
2023-03-22T20:58:17.642Z,1.30
2023-03-22T21:00:45.036Z,1.60
2023-03-22T21:03:12.213Z,1.25
2023-03-22T21:05:39.368Z,1.77
2023-03-22T21:08:06.639Z,2.95
2023-03-22T21:10:33.689Z,2.50
2023-03-22T21:13:00.918Z,2.90
2023-03-22T21:15:28.245Z,1.98
2023-03-22T21:17:55.349Z,2.20
2023-03-22T21:20:32.281Z,2.00
2023-03-22T21:22:59.834Z,2.00
2023-03-22T21:25:26.877Z,1.80
2023-03-22T21:27:53.926Z,1.63
2023-03-22T21:30:20.973Z,1.80
2023-03-22T21:32:47.996Z,1.65
2023-03-22T21:35:15.036Z,1.77
2023-03-22T21:37:42.127Z,1.52
2023-03-22T21:40:09.210Z,1.80
2023-03-22T21:42:36.976Z,1.70
2023-03-22T21:45:04.097Z,1.92
2023-03-22T21:47:31.193Z,1.90
2023-03-22T21:49:58.199Z,1.58
2023-03-22T21:52:25.517Z,1.95
2023-03-22T21:54:52.545Z,1.88
2023-03-22T21:57:20.884Z,1.55
2023-03-22T21:59:47.969Z,1.73
2023-03-22T22:02:15.059Z,1.38
2023-03-22T22:04:42.106Z,1.60
2023-03-22T22:07:09.233Z,1.38
2023-03-22T22:09:36.285Z,1.45
2023-03-22T22:12:05.559Z,1.40
2023-03-22T22:14:32.733Z,1.45
2023-03-22T22:16:59.974Z,1.63
2023-03-22T22:19:27.024Z,1.77
2023-03-22T22:21:57.016Z,2.05
2023-03-22T22:24:24.189Z,1.45
2023-03-22T22:26:51.401Z,1.60
2023-03-22T22:29:18.516Z,1.45
2023-03-22T22:31:45.794Z,1.80
2023-03-22T22:34:12.831Z,1.10
2023-03-22T22:36:39.883Z,1.45
2023-03-22T22:39:06.923Z,1.25
2023-03-22T22:41:34.153Z,1.00
2023-03-22T22:44:01.205Z,1.27
2023-03-22T22:46:28.308Z,0.82
2023-03-22T22:48:55.644Z,1.27
2023-03-22T22:51:22.758Z,1.23
2023-03-22T22:53:49.799Z,0.90
2023-03-22T22:56:17.156Z,1.27
2023-03-22T22:58:44.171Z,1.50
2023-03-22T23:01:11.220Z,1.00
2023-03-22T23:03:38.583Z,0.85
2023-03-22T23:06:06.425Z,1.50
2023-03-22T23:08:33.537Z,1.13
2023-03-22T23:11:00.584Z,1.15
2023-03-22T23:13:27.598Z,0.98
2023-03-22T23:15:54.989Z,1.20
2023-03-22T23:18:22.044Z,0.93
2023-03-22T23:20:49.078Z,1.08
2023-03-22T23:23:16.121Z,1.10
2023-03-22T23:25:43.187Z,1.13
2023-03-22T23:28:10.241Z,0.90
2023-03-22T23:30:37.265Z,1.10
2023-03-22T23:33:04.278Z,1.08
2023-03-22T23:35:31.458Z,1.20
2023-03-22T23:37:59.886Z,1.30
2023-03-22T23:40:27.432Z,1.05
2023-03-22T23:42:54.432Z,1.42
2023-03-22T23:45:21.687Z,1.50
2023-03-22T23:47:48.709Z,1.33
2023-03-22T23:50:15.749Z,1.42
2023-03-22T23:52:42.771Z,1.40
2023-03-22T23:55:09.797Z,1.40
2023-03-22T23:57:36.821Z,1.38
